createdAt,value
2018-12-12T00:02:12.984Z,8.58
2018-12-12T00:04:41.229Z,7.83
2018-12-12T00:07:09.530Z,10.30
2018-12-12T00:09:37.699Z,7.85
2018-12-12T00:12:05.851Z,6.65
2018-12-12T00:14:34.115Z,6.00
2018-12-12T00:17:02.261Z,8.50
2018-12-12T00:19:30.424Z,7.97
2018-12-12T00:21:58.579Z,6.62
2018-12-12T00:24:26.812Z,7.45
2018-12-12T00:26:54.955Z,7.45
2018-12-12T00:29:23.236Z,5.60
2018-12-12T00:31:51.376Z,7.12
2018-12-12T00:34:19.744Z,8.60
2018-12-12T00:36:47.887Z,5.78
2018-12-12T00:39:16.060Z,8.55
2018-12-12T00:41:44.195Z,8.25
2018-12-12T00:44:12.412Z,9.58
2018-12-12T00:46:40.845Z,8.18
2018-12-12T00:49:09.184Z,9.45
2018-12-12T00:51:37.391Z,8.13
2018-12-12T00:54:05.631Z,7.78
2018-12-12T00:56:33.787Z,6.75
2018-12-12T00:59:01.936Z,7.22
2018-12-12T01:01:30.109Z,9.13
2018-12-12T01:03:58.503Z,5.75
2018-12-12T01:06:26.667Z,6.95
2018-12-12T01:08:54.815Z,6.92
2018-12-12T01:11:29.323Z,7.95
2018-12-12T01:13:57.484Z,6.12
2018-12-12T01:16:25.674Z,6.45
2018-12-12T01:18:53.816Z,7.33
2018-12-12T01:21:21.979Z,6.25
2018-12-12T01:23:50.243Z,7.83
2018-12-12T01:26:18.416Z,7.05
2018-12-12T01:28:46.563Z,6.10
2018-12-12T01:31:14.736Z,6.37
2018-12-12T01:33:42.940Z,5.25
2018-12-12T01:36:11.107Z,8.00
2018-12-12T01:38:39.247Z,6.37
2018-12-12T01:41:07.420Z,7.17
2018-12-12T01:43:35.647Z,8.13
2018-12-12T01:46:03.954Z,6.75
2018-12-12T01:48:32.101Z,5.25
2018-12-12T01:51:00.288Z,4.65
2018-12-12T01:53:28.531Z,8.20
2018-12-12T01:55:56.691Z,5.35
2018-12-12T01:58:24.844Z,7.92
2018-12-12T02:00:53.015Z,8.00
2018-12-12T02:03:21.232Z,7.55
2018-12-12T02:05:49.395Z,7.85
2018-12-12T02:08:17.916Z,6.35
2018-12-12T02:10:46.351Z,7.42
2018-12-12T02:13:34.313Z,6.53
2018-12-12T02:16:04.592Z,6.87
2018-12-12T02:18:33.106Z,8.60
2018-12-12T02:21:01.276Z,6.70
2018-12-12T02:23:29.468Z,6.80
2018-12-12T02:25:57.635Z,7.53
2018-12-12T02:28:25.792Z,6.58
2018-12-12T02:30:53.947Z,7.03
2018-12-12T02:33:22.107Z,5.78
2018-12-12T02:35:50.284Z,9.88
2018-12-12T02:38:18.423Z,5.53
2018-12-12T02:40:46.605Z,7.33
2018-12-12T02:43:17.819Z,6.42
2018-12-12T02:45:45.996Z,8.88
2018-12-12T02:48:15.616Z,5.60
2018-12-12T02:50:43.788Z,5.03
2018-12-12T02:53:12.047Z,6.87
2018-12-12T02:55:40.215Z,6.00
2018-12-12T02:58:08.367Z,7.78
2018-12-12T03:00:36.542Z,7.15
2018-12-12T03:03:04.859Z,7.12
2018-12-12T03:05:33.119Z,10.35
2018-12-12T03:08:01.276Z,6.17
2018-12-12T03:10:29.443Z,6.42
2018-12-12T03:12:57.579Z,7.05
2018-12-12T03:15:25.743Z,6.35
2018-12-12T03:17:53.883Z,6.22
2018-12-12T03:20:22.047Z,7.35
2018-12-12T03:22:50.198Z,5.95
2018-12-12T03:25:18.373Z,5.75
2018-12-12T03:27:46.524Z,5.70
2018-12-12T03:30:14.689Z,6.30
2018-12-12T03:32:42.949Z,8.45
2018-12-12T03:35:11.188Z,5.70
2018-12-12T03:37:39.345Z,5.35
2018-12-12T03:40:07.907Z,6.22
2018-12-12T03:42:36.614Z,6.08
2018-12-12T03:45:05.240Z,6.72
2018-12-12T03:47:33.689Z,5.97
2018-12-12T03:50:01.996Z,5.72
2018-12-12T03:52:30.344Z,6.05
2018-12-12T03:54:58.492Z,6.17
2018-12-12T03:57:26.659Z,6.67
2018-12-12T03:59:54.817Z,6.25
2018-12-12T04:02:22.996Z,5.60
2018-12-12T04:04:51.157Z,5.87
2018-12-12T04:07:19.413Z,6.55
2018-12-12T04:09:47.551Z,4.12
2018-12-12T04:12:15.795Z,5.97
2018-12-12T04:14:43.952Z,75.42
2018-12-12T04:17:12.297Z,131.12
2018-12-12T04:19:40.599Z,22.20
2018-12-12T04:22:09.195Z,13.80
2018-12-12T04:24:37.520Z,6.90
2018-12-12T04:27:05.679Z,8.58
2018-12-12T04:29:33.834Z,6.08
2018-12-12T04:32:02.299Z,5.20
2018-12-12T04:34:30.579Z,6.42
2018-12-12T04:36:58.740Z,8.70
2018-12-12T04:39:27.040Z,6.17
2018-12-12T04:41:55.243Z,6.30
2018-12-12T04:44:23.384Z,4.90
2018-12-12T04:46:51.547Z,5.45
2018-12-12T04:49:20.019Z,6.67
2018-12-12T04:51:48.191Z,5.78
2018-12-12T04:54:16.335Z,7.00
2018-12-12T04:56:44.503Z,5.60
2018-12-12T04:59:13.431Z,5.58
2018-12-12T05:01:41.783Z,5.97
2018-12-12T05:04:09.930Z,7.92
2018-12-12T05:06:38.095Z,6.42
2018-12-12T05:09:06.324Z,4.58
2018-12-12T05:11:34.652Z,9.93
2018-12-12T05:14:02.900Z,5.53
2018-12-12T05:16:31.071Z,6.03
2018-12-12T05:18:59.222Z,6.60
2018-12-12T05:21:27.434Z,10.00
2018-12-12T05:23:55.685Z,6.33
2018-12-12T05:26:23.827Z,6.33
2018-12-12T05:28:51.976Z,6.67
2018-12-12T05:31:20.234Z,8.28
2018-12-12T05:33:48.375Z,5.22
2018-12-12T05:36:16.551Z,7.90
2018-12-12T05:38:44.700Z,5.92
2018-12-12T05:41:13.584Z,4.75
2018-12-12T05:43:41.720Z,5.47
2018-12-12T05:46:09.912Z,5.17
2018-12-12T05:48:38.043Z,8.35
2018-12-12T05:51:06.447Z,7.75
2018-12-12T05:53:34.589Z,6.15
2018-12-12T05:56:02.789Z,6.95
2018-12-12T05:58:31.014Z,4.90
2018-12-12T06:00:59.227Z,6.45
2018-12-12T06:03:27.391Z,8.50
2018-12-12T06:05:55.533Z,6.87
2018-12-12T06:08:23.708Z,11.08
2018-12-12T06:10:51.934Z,9.50
2018-12-12T06:13:20.144Z,8.70
2018-12-12T06:15:48.286Z,6.65
2018-12-12T06:18:16.489Z,6.30
2018-12-12T06:20:44.732Z,8.38
2018-12-12T06:23:13.004Z,7.58
2018-12-12T06:25:41.135Z,5.87
2018-12-12T06:28:09.307Z,6.17
2018-12-12T06:30:37.519Z,5.55
2018-12-12T06:33:05.689Z,7.05
2018-12-12T06:35:33.831Z,7.72
2018-12-12T06:38:02.000Z,8.75
2018-12-12T06:40:30.215Z,7.33
2018-12-12T06:42:58.393Z,8.23
2018-12-12T06:45:26.532Z,8.58
2018-12-12T06:47:54.698Z,5.37
2018-12-12T06:50:22.847Z,6.33
2018-12-12T06:52:51.016Z,7.72
2018-12-12T06:55:19.154Z,7.42
2018-12-12T06:57:47.330Z,5.35
2018-12-12T07:00:15.471Z,7.65
2018-12-12T07:02:43.636Z,5.78
2018-12-12T07:05:11.849Z,7.03
2018-12-12T07:07:40.003Z,6.05
2018-12-12T07:10:08.301Z,6.70
2018-12-12T07:12:36.462Z,6.97
2018-12-12T07:15:04.957Z,8.15
2018-12-12T07:17:33.123Z,7.40
2018-12-12T07:20:01.309Z,8.15
2018-12-12T07:22:29.471Z,6.80
2018-12-12T07:24:57.619Z,6.80
2018-12-12T07:27:25.790Z,7.80
2018-12-12T07:29:54.105Z,8.00
2018-12-12T07:32:25.977Z,6.15
2018-12-12T07:34:52.406Z,8.43
2018-12-12T07:37:20.581Z,6.05
2018-12-12T07:39:48.748Z,5.80
2018-12-12T07:42:16.933Z,6.08
2018-12-12T07:44:45.066Z,7.05
2018-12-12T07:47:14.446Z,9.30
2018-12-12T07:49:42.982Z,9.83
2018-12-12T07:52:12.292Z,7.30
2018-12-12T07:54:40.618Z,7.20
2018-12-12T07:57:08.795Z,7.05
2018-12-12T07:59:37.011Z,7.65
2018-12-12T08:02:05.256Z,7.42
2018-12-12T08:04:33.412Z,7.22
2018-12-12T08:07:01.575Z,6.92
2018-12-12T08:09:29.807Z,6.17
2018-12-12T08:11:57.976Z,6.22
2018-12-12T08:14:26.279Z,9.03
2018-12-12T08:16:54.445Z,7.87
2018-12-12T08:19:22.611Z,7.05
2018-12-12T08:21:50.793Z,8.15
2018-12-12T08:24:18.949Z,9.30
2018-12-12T08:26:47.115Z,11.43
2018-12-12T08:29:15.510Z,9.58
2018-12-12T08:31:43.665Z,12.33
2018-12-12T08:34:11.832Z,9.45
2018-12-12T08:36:39.975Z,7.20
2018-12-12T08:39:08.407Z,9.38
2018-12-12T08:41:36.559Z,7.75
2018-12-12T08:44:04.821Z,6.95
2018-12-12T08:46:32.968Z,9.60
2018-12-12T08:49:01.325Z,8.58
2018-12-12T08:51:29.583Z,10.90
2018-12-12T08:53:57.735Z,8.40
2018-12-12T08:56:25.875Z,9.15
2018-12-12T08:58:54.063Z,11.10
2018-12-12T09:01:22.382Z,7.00
2018-12-12T09:03:50.539Z,8.80
2018-12-12T09:06:18.687Z,9.25
2018-12-12T09:08:47.032Z,6.87
2018-12-12T09:11:15.192Z,8.18
2018-12-12T09:13:43.348Z,7.83
2018-12-12T09:16:11.488Z,5.95
2018-12-12T09:18:39.727Z,7.53
2018-12-12T09:21:07.868Z,7.70
2018-12-12T09:23:36.043Z,6.15
2018-12-12T09:26:04.324Z,5.95
2018-12-12T09:28:32.627Z,6.95
2018-12-12T09:31:00.777Z,6.97
2018-12-12T09:33:28.930Z,6.92
2018-12-12T09:35:57.073Z,6.75
2018-12-12T09:38:25.324Z,7.72
2018-12-12T09:40:53.628Z,7.42
2018-12-12T09:43:21.796Z,9.10
2018-12-12T09:45:49.931Z,6.22
2018-12-12T09:48:19.730Z,8.55
2018-12-12T09:50:48.384Z,7.03
2018-12-12T09:53:16.541Z,7.78
2018-12-12T09:55:44.678Z,6.33
2018-12-12T09:58:12.875Z,6.70
2018-12-12T10:00:41.015Z,6.87
2018-12-12T10:03:09.169Z,6.55
2018-12-12T10:05:37.315Z,5.25
2018-12-12T10:08:05.564Z,9.80
2018-12-12T10:10:33.703Z,7.55
2018-12-12T10:13:01.877Z,6.05
2018-12-12T10:15:30.017Z,4.75
2018-12-12T10:17:58.258Z,4.58
2018-12-12T10:20:26.398Z,6.33
2018-12-12T10:22:54.563Z,5.20
2018-12-12T10:25:22.707Z,6.70
2018-12-12T10:27:50.846Z,5.72
2018-12-12T10:30:19.007Z,5.62
2018-12-12T10:32:47.147Z,4.85
2018-12-12T10:35:15.303Z,5.65
2018-12-12T10:37:43.448Z,5.20
2018-12-12T10:40:11.677Z,4.33
2018-12-12T10:42:39.814Z,8.00
2018-12-12T10:45:08.043Z,4.35
2018-12-12T10:47:36.227Z,5.75
2018-12-12T10:50:06.236Z,6.53
2018-12-12T10:52:34.373Z,5.95
2018-12-12T10:55:02.531Z,4.58
2018-12-12T10:57:30.673Z,5.35
2018-12-12T10:59:58.863Z,6.22
2018-12-12T11:02:30.360Z,4.60
2018-12-12T11:04:58.686Z,4.22
2018-12-12T11:07:26.949Z,5.35
2018-12-12T11:09:55.109Z,4.42
2018-12-12T11:12:23.252Z,4.12
2018-12-12T11:14:51.483Z,5.72
2018-12-12T11:17:19.744Z,5.85
2018-12-12T11:19:47.899Z,6.35
2018-12-12T11:22:16.048Z,6.00
2018-12-12T11:24:45.154Z,7.95
2018-12-12T11:27:13.768Z,6.08
2018-12-12T11:29:42.031Z,6.50
2018-12-12T11:32:10.310Z,6.90
2018-12-12T11:34:38.470Z,7.50
2018-12-12T11:37:06.679Z,3.62
2018-12-12T11:39:34.829Z,5.78
2018-12-12T11:42:02.972Z,7.70
2018-12-12T11:44:31.127Z,9.05
2018-12-12T11:46:59.460Z,6.30
2018-12-12T11:49:27.618Z,5.97
2018-12-12T11:51:55.927Z,6.35
2018-12-12T11:54:24.160Z,5.67
2018-12-12T11:56:52.367Z,8.70
2018-12-12T11:59:20.543Z,7.22
2018-12-12T12:01:48.690Z,6.15
2018-12-12T12:04:16.851Z,7.10
2018-12-12T12:06:45.067Z,6.40
2018-12-12T12:09:13.223Z,5.12
2018-12-12T12:11:41.359Z,5.62
2018-12-12T12:14:09.522Z,7.55
2018-12-12T12:16:37.768Z,7.50
2018-12-12T12:19:05.930Z,8.28
2018-12-12T12:21:34.064Z,6.47
2018-12-12T12:24:02.224Z,6.12
2018-12-12T12:26:30.724Z,5.67
2018-12-12T12:28:59.264Z,5.47
2018-12-12T12:31:27.675Z,5.13
2018-12-12T12:33:55.907Z,6.43
2018-12-12T12:36:24.178Z,5.83
2018-12-12T12:38:52.339Z,5.97
2018-12-12T12:41:20.499Z,5.50
2018-12-12T12:43:48.648Z,6.33
2018-12-12T12:46:16.898Z,7.57
2018-12-12T12:48:45.517Z,4.90
2018-12-12T12:51:13.761Z,8.03
2018-12-12T12:53:41.894Z,7.70
2018-12-12T12:56:10.103Z,4.80
2018-12-12T12:58:38.248Z,8.20
2018-12-12T13:01:12.166Z,5.73
2018-12-12T13:03:40.316Z,7.03
2018-12-12T13:06:08.643Z,5.90
2018-12-12T13:08:36.787Z,6.22
2018-12-12T13:11:04.958Z,6.75
2018-12-12T13:13:33.161Z,8.10
2018-12-12T13:16:01.439Z,6.97
2018-12-12T13:18:29.645Z,9.38
2018-12-12T13:20:57.805Z,8.63
2018-12-12T13:23:25.947Z,11.35
2018-12-12T13:25:54.240Z,8.88
2018-12-12T13:28:22.379Z,8.65
2018-12-12T13:30:50.560Z,10.32
2018-12-12T13:33:18.700Z,9.65
2018-12-12T13:35:46.947Z,10.58
2018-12-12T13:38:15.076Z,8.60
2018-12-12T13:40:43.322Z,9.45
2018-12-12T13:43:11.455Z,9.15
2018-12-12T13:45:39.737Z,7.37
2018-12-12T13:48:07.871Z,11.25
2018-12-12T13:50:36.035Z,10.50
2018-12-12T13:53:04.178Z,8.28
2018-12-12T13:55:32.346Z,10.18
2018-12-12T13:58:00.497Z,8.33
2018-12-12T14:00:28.647Z,8.20
2018-12-12T14:02:56.799Z,10.35
2018-12-12T14:05:24.971Z,9.70
2018-12-12T14:07:53.114Z,9.75
2018-12-12T14:10:21.285Z,9.13
2018-12-12T14:12:49.423Z,9.35
2018-12-12T14:15:17.612Z,8.78
2018-12-12T14:17:45.751Z,7.85
2018-12-12T14:20:13.914Z,7.58
2018-12-12T14:22:42.063Z,7.42
2018-12-12T14:25:10.511Z,9.70
2018-12-12T14:27:39.038Z,7.00
2018-12-12T14:30:08.771Z,8.80
2018-12-12T14:32:36.910Z,7.72
2018-12-12T14:35:05.307Z,7.87
2018-12-12T14:37:33.475Z,7.83
2018-12-12T14:40:01.606Z,7.17
2018-12-12T14:42:29.777Z,7.28
2018-12-12T14:44:58.035Z,8.28
2018-12-12T14:47:26.194Z,8.05
2018-12-12T14:49:54.327Z,8.48
2018-12-12T14:52:22.493Z,8.33
2018-12-12T14:54:50.744Z,7.70
2018-12-12T14:57:18.904Z,10.90
2018-12-12T14:59:47.056Z,10.65
2018-12-12T15:02:15.215Z,15.45
2018-12-12T15:04:43.431Z,10.70
2018-12-12T15:07:11.583Z,10.45
2018-12-12T15:09:39.726Z,10.20
2018-12-12T15:12:07.972Z,9.03
2018-12-12T15:14:36.333Z,11.80
2018-12-12T15:17:04.668Z,12.90
2018-12-12T15:19:32.810Z,12.40
2018-12-12T15:22:01.156Z,10.50
2018-12-12T15:24:29.442Z,12.88
2018-12-12T15:26:57.604Z,13.83
2018-12-12T15:29:25.755Z,11.30
2018-12-12T15:31:53.915Z,11.38
2018-12-12T15:34:22.135Z,15.72
2018-12-12T15:36:50.302Z,11.38
2018-12-12T15:39:18.443Z,13.58
2018-12-12T15:41:46.604Z,12.45
2018-12-12T15:44:14.832Z,14.20
2018-12-12T15:46:43.267Z,12.10
2018-12-12T15:49:11.407Z,15.00
2018-12-12T15:51:39.579Z,13.68
2018-12-12T15:54:07.934Z,14.83
2018-12-12T15:56:36.090Z,16.07
2018-12-12T15:59:04.303Z,15.93
2018-12-12T16:01:32.471Z,13.35
2018-12-12T16:04:00.739Z,21.80
2018-12-12T16:06:28.907Z,28.30
2018-12-12T16:08:57.062Z,17.30
2018-12-12T16:11:25.237Z,18.25
2018-12-12T16:13:53.439Z,17.17
2018-12-12T16:16:21.607Z,17.23
2018-12-12T16:18:49.750Z,15.68
2018-12-12T16:21:18.033Z,13.78
2018-12-12T16:23:46.461Z,14.40
2018-12-12T16:26:14.624Z,14.80
2018-12-12T16:28:42.775Z,14.87
2018-12-12T16:31:10.938Z,16.85
2018-12-12T16:33:39.135Z,13.53
2018-12-12T16:36:07.300Z,16.40
2018-12-12T16:38:35.442Z,16.77
2018-12-12T16:41:03.622Z,14.07
2018-12-12T16:43:31.899Z,12.68
2018-12-12T16:46:00.073Z,14.33
2018-12-12T16:48:28.219Z,15.65
2018-12-12T16:50:56.427Z,14.28
2018-12-12T16:53:24.661Z,32.30
2018-12-12T16:55:52.807Z,15.63
2018-12-12T16:58:20.970Z,14.78
2018-12-12T17:00:49.110Z,15.10
2018-12-12T17:03:18.220Z,14.38
2018-12-12T17:05:46.375Z,14.47
2018-12-12T17:08:14.545Z,14.95
2018-12-12T17:10:42.737Z,13.95
2018-12-12T17:13:10.898Z,15.30
2018-12-12T17:15:39.045Z,13.60
2018-12-12T17:18:07.214Z,14.20
2018-12-12T17:20:35.355Z,16.62
2018-12-12T17:23:03.521Z,72.80
2018-12-12T17:25:31.840Z,15.23
2018-12-12T17:28:00.080Z,15.88
2018-12-12T17:30:28.228Z,18.00
2018-12-12T17:32:56.400Z,17.57
2018-12-12T17:35:24.548Z,12.88
2018-12-12T17:37:52.711Z,18.37
2018-12-12T17:40:20.857Z,17.17
2018-12-12T17:42:49.028Z,16.25
2018-12-12T17:45:17.168Z,15.03
2018-12-12T17:47:45.343Z,14.70
2018-12-12T17:50:13.626Z,14.38
2018-12-12T17:52:41.963Z,14.85
2018-12-12T17:55:10.174Z,13.98
2018-12-12T17:57:38.351Z,16.57
2018-12-12T18:00:07.505Z,14.98
2018-12-12T18:02:35.694Z,18.48
2018-12-12T18:05:04.784Z,12.80
2018-12-12T18:07:32.952Z,14.40
2018-12-12T18:10:01.091Z,17.05
2018-12-12T18:12:29.269Z,18.52
2018-12-12T18:14:57.411Z,20.72
2018-12-12T18:17:25.614Z,17.40
2018-12-12T18:19:53.764Z,18.10
2018-12-12T18:22:21.935Z,17.87
2018-12-12T18:24:50.096Z,19.02
2018-12-12T18:27:18.267Z,18.48
2018-12-12T18:29:46.407Z,16.57
2018-12-12T18:32:14.713Z,19.75
2018-12-12T18:34:42.940Z,19.75
2018-12-12T18:37:11.117Z,15.95
2018-12-12T18:39:39.269Z,20.85
2018-12-12T18:42:07.650Z,18.20
2018-12-12T18:44:35.812Z,16.52
2018-12-12T18:47:03.958Z,16.12
2018-12-12T18:49:32.128Z,20.65
2018-12-12T18:52:00.311Z,20.92
2018-12-12T18:54:28.478Z,16.87
2018-12-12T18:56:56.632Z,20.62
2018-12-12T18:59:24.809Z,19.25
2018-12-12T19:01:53.055Z,18.15
2018-12-12T19:04:21.315Z,18.85
2018-12-12T19:06:49.455Z,18.25
2018-12-12T19:09:17.627Z,23.42
2018-12-12T19:11:45.860Z,20.27
2018-12-12T19:14:14.929Z,20.05
2018-12-12T19:16:44.244Z,20.68
2018-12-12T19:19:12.644Z,19.30
2018-12-12T19:21:40.875Z,19.60
2018-12-12T19:24:09.051Z,19.40
2018-12-12T19:26:37.204Z,19.45
2018-12-12T19:29:05.371Z,20.17
2018-12-12T19:31:33.614Z,21.02
2018-12-12T19:34:01.810Z,20.40
2018-12-12T19:36:30.170Z,17.20
2018-12-12T19:38:58.327Z,19.15
2018-12-12T19:41:26.506Z,19.02
2018-12-12T19:43:54.680Z,20.02
2018-12-12T19:46:22.828Z,20.00
2018-12-12T19:48:51.001Z,18.75
2018-12-12T19:51:19.150Z,20.35
2018-12-12T19:53:47.315Z,21.93
2018-12-12T19:56:15.466Z,21.62
2018-12-12T19:58:43.626Z,20.57
2018-12-12T20:01:11.784Z,20.08
2018-12-12T20:03:39.955Z,22.60
2018-12-12T20:06:08.180Z,21.27
2018-12-12T20:08:36.346Z,21.15
2018-12-12T20:11:05.559Z,22.98
2018-12-12T20:13:33.726Z,22.80
2018-12-12T20:16:01.882Z,21.57
2018-12-12T20:18:30.052Z,20.40
2018-12-12T20:20:58.207Z,20.50
2018-12-12T20:23:26.508Z,20.32
2018-12-12T20:25:54.681Z,20.35
2018-12-12T20:28:22.935Z,21.23
2018-12-12T20:30:51.106Z,19.62
2018-12-12T20:33:19.251Z,22.48
2018-12-12T20:35:48.245Z,20.08
2018-12-12T20:38:16.685Z,20.45
2018-12-12T20:40:47.994Z,21.62
2018-12-12T20:43:16.134Z,20.70
2018-12-12T20:45:44.315Z,22.75
2018-12-12T20:48:12.478Z,21.37
2018-12-12T20:50:40.937Z,21.00
2018-12-12T20:53:09.078Z,19.25
2018-12-12T20:55:37.246Z,18.77
2018-12-12T20:58:05.403Z,20.35
2018-12-12T21:00:33.728Z,19.95
2018-12-12T21:03:01.867Z,18.40
2018-12-12T21:05:30.048Z,17.50
2018-12-12T21:07:58.191Z,18.62
2018-12-12T21:10:26.370Z,20.15
2018-12-12T21:12:54.525Z,18.87
2018-12-12T21:15:22.693Z,21.50
2018-12-12T21:17:50.839Z,21.23
2018-12-12T21:20:19.119Z,20.57
2018-12-12T21:22:47.266Z,18.95
2018-12-12T21:25:15.595Z,19.87
2018-12-12T21:27:43.765Z,21.15
2018-12-12T21:30:17.243Z,21.12
2018-12-12T21:32:42.207Z,21.90
2018-12-12T21:35:10.366Z,19.17
2018-12-12T21:37:38.512Z,21.97
2018-12-12T21:40:06.920Z,20.68
2018-12-12T21:42:35.085Z,20.68
2018-12-12T21:45:03.639Z,19.50
2018-12-12T21:47:31.780Z,19.02
2018-12-12T21:50:00.087Z,20.97
2018-12-12T21:52:28.228Z,21.62
2018-12-12T21:54:56.400Z,20.62
2018-12-12T21:57:24.559Z,22.00
2018-12-12T21:59:52.775Z,20.57
2018-12-12T22:02:20.928Z,21.45
2018-12-12T22:04:49.191Z,21.35
2018-12-12T22:07:17.320Z,23.30
2018-12-12T22:09:45.500Z,23.50
2018-12-12T22:12:13.660Z,19.55
2018-12-12T22:14:41.824Z,21.12
2018-12-12T22:17:09.971Z,21.55
2018-12-12T22:19:38.255Z,21.93
2018-12-12T22:22:06.408Z,22.58
2018-12-12T22:24:34.581Z,23.50
2018-12-12T22:27:02.722Z,24.80
2018-12-12T22:29:30.951Z,23.90
2018-12-12T22:31:59.105Z,20.30
2018-12-12T22:34:27.275Z,21.05
2018-12-12T22:36:55.415Z,22.15
2018-12-12T22:39:23.635Z,22.02
2018-12-12T22:41:51.792Z,21.95
2018-12-12T22:44:19.979Z,21.60
2018-12-12T22:46:48.137Z,21.95
2018-12-12T22:49:16.527Z,23.85
2018-12-12T22:51:44.768Z,21.73
2018-12-12T22:54:12.926Z,22.95
2018-12-12T22:56:41.087Z,22.02
2018-12-12T22:59:09.234Z,21.57
2018-12-12T23:01:37.399Z,24.20
2018-12-12T23:04:05.549Z,19.67
2018-12-12T23:06:33.723Z,23.05
2018-12-12T23:09:01.931Z,22.17
2018-12-12T23:11:30.095Z,21.62
2018-12-12T23:13:58.234Z,23.50
2018-12-12T23:16:26.401Z,21.52
2018-12-12T23:18:54.547Z,22.73
2018-12-12T23:21:22.717Z,25.30
2018-12-12T23:23:50.872Z,27.05
2018-12-12T23:26:19.044Z,20.30
2018-12-12T23:28:47.267Z,21.07
2018-12-12T23:31:15.443Z,22.35
2018-12-12T23:33:43.586Z,23.52
2018-12-12T23:36:11.858Z,23.15
2018-12-12T23:38:39.999Z,23.05
2018-12-12T23:41:08.169Z,25.85
2018-12-12T23:43:36.328Z,22.22
2018-12-12T23:46:04.558Z,23.40
2018-12-12T23:48:32.718Z,23.57
2018-12-12T23:51:00.881Z,24.43
2018-12-12T23:53:29.050Z,23.77
2018-12-12T23:55:57.218Z,22.82
2018-12-12T23:58:25.516Z,23.30
